Terminal Aerodrome Forecast
Issued by NWS

Home | Current Version | Previous Version | Text Only | Print | Product List | Glossary On
Versions: 1 2 3 4 5 6 7 8 9 10 11 12 13 14 15 16 17
000
FTUS44 KLZK 171737
TAFBPK
TAF
KBPK 171737Z 1718/1818 19008G18KT P6SM OVC020 WS020/21045KT
     FM172000 19009G18KT P6SM SCT015 OVC030 WS020/21045KT
     FM180200 19008G18KT P6SM VCSH OVC040
     FM180800 22008G18KT P6SM VCSH BKN020 OVC040
     FM181300 31012G22KT 6SM -TSRA BR OVC020CB=

USA.gov is the U.S. government's official web portal to all federal, state and local government web resources and services.